Time;durP1;ratioP1;P1;durP2;ratioP2;P2;SDS_P1;SDS_P2;PMS_P1;PMS_P2;Temp;Humidity;BMP_temperature;BMP_pressure;BME280_temperature;BME280_humidity;BME280_pressure;Samples;Min_cycle;Max_cycle;Signal;HPM_P1;HPM_P2
2024/01/05 06:01:21;;;;;;;;;;;;;;;;;;5607797;22;20247;-44
2024/01/05 06:03:47;;;;;;;;;;;;;;;;;;4973750;28;19914;-43
2024/01/05 06:06:13;;;;;;;;;;;;;;;;;;4974166;28;19918;-45
2024/01/05 06:08:38;;;;;;;;;;;;;;;;;;4973945;28;20372;-43
2024/01/05 06:11:04;;;;;;;;;;;;;;;;;;4973951;28;19917;-44
2024/01/05 06:13:31;;;;;;;;;;;;;;;;;;4974172;28;19910;-44
2024/01/05 06:15:57;;;;;;;;;;;;;;;;;;4974233;28;19910;-45
2024/01/05 06:18:23;;;;;;;;;;;;;;;;;;4973638;28;19969;-44
2024/01/05 06:20:49;;;;;;;;;;;;;;;;;;4974104;28;19918;-47
2024/01/05 06:23:14;;;;;;;;;;;;;;;;;;4973728;28;19910;-46
2024/01/05 06:25:40;;;;;;;;;;;;;;;;;;4973966;28;19910;-43
2024/01/05 06:28:06;;;;;;;;;;;;;;;;;;4973516;28;19914;-43
2024/01/05 06:30:32;;;;;;;;;;;;;;;;;;4973776;28;19910;-45
2024/01/05 06:32:58;;;;;;;;;;;;;;;;;;4973995;28;19937;-46
2024/01/05 06:35:24;;;;;;;;;;;;;;;;;;4974042;28;19944;-43
2024/01/05 06:37:50;;;;;;;;;;;;;;;;;;4973536;28;20337;-47
2024/01/05 06:40:16;;;;;;;;;;;;;;;;;;4973224;28;19914;-43
2024/01/05 06:42:42;;;;;;;;;;;;;;;;;;4973514;28;20152;-43
2024/01/05 06:45:08;;;;;;;;;;;;;;;;;;4973219;28;19945;-43
2024/01/05 06:47:34;;;;;;;;;;;;;;;;;;4973399;28;19910;-46
2024/01/05 06:50:00;;;;;;;;;;;;;;;;;;4973162;28;19910;-46
2024/01/05 06:52:26;;;;;;;;;;;;;;;;;;4971823;28;19965;-45
2024/01/05 06:54:51;;;;;;;;;;;;;;;;;;4973029;28;19956;-44
2024/01/05 06:57:17;;;;;;;;;;;;;;;;;;4973273;28;19917;-45
2024/01/05 06:59:43;;;;;;;;;;;;;;;;;;4972781;28;19937;-45
2024/01/05 07:02:10;;;;;;;;;;;;;;;;;;4972702;28;19925;-45
2024/01/05 07:04:36;;;;;;;;;;;;;;;;;;4972905;28;19949;-44
2024/01/05 07:07:02;;;;;;;;;;;;;;;;;;4972164;28;20390;-46
2024/01/05 07:09:28;;;;;;;;;;;;;;;;;;4972404;28;19910;-45
2024/01/05 07:11:54;;;;;;;;;;;;;;;;;;4973046;28;19914;-43
2024/01/05 07:14:20;;;;;;;;;;;;;;;;;;4972501;28;19910;-43
2024/01/05 07:16:46;;;;;;;;;;;;;;;;;;4972754;28;20388;-48
2024/01/05 07:19:12;;;;;;;;;;;;;;;;;;4972550;28;19918;-46
2024/01/05 07:21:40;;;;;;;;;;;;;;;;;;4972906;28;19988;-46
2024/01/05 07:24:06;;;;;;;;;;;;;;;;;;4972544;28;20013;-47
2024/01/05 07:26:32;;;;;;;;;;;;;;;;;;4973017;28;19910;-46
2024/01/05 07:28:58;;;;;;;;;;;;;;;;;;4972386;28;19916;-47
2024/01/05 07:31:24;;;;;;;;;;;;;;;;;;4972278;28;19997;-45
2024/01/05 07:33:50;;;;;;;;;;;;;;;;;;4972652;28;19918;-42
2024/01/05 07:36:16;;;;;;;;;;;;;;;;;;4972110;28;19968;-46
2024/01/05 07:38:42;;;;;;;;;;;;;;;;;;4972044;28;19914;-46
2024/01/05 07:41:08;;;;;;;;;;;;;;;;;;4972023;28;19949;-48
2024/01/05 07:43:33;;;;;;;;;;;;;;;;;;4972539;28;19916;-47
2024/01/05 07:45:59;;;;;;;;;;;;;;;;;;4970690;28;19973;-47
2024/01/05 07:48:25;;;;;;;;;;;;;;;;;;4972054;28;19969;-47
2024/01/05 07:50:51;;;;;;;;;;;;;;;;;;4972226;28;20424;-46
2024/01/05 07:53:17;;;;;;;;;;;;;;;;;;4971555;28;19964;-46
2024/01/05 07:55:43;;;;;;;;;;;;;;;;;;4976192;28;19917;-44
2024/01/05 07:58:09;;;;;;;;;;;;;;;;;;4992137;28;19991;-45
2024/01/05 08:00:35;;;;;;;;;;;;;;;;;;4981742;28;20389;-45
2024/01/05 08:03:03;;;;;;;;;;;;;;;;;;4972963;28;19957;-43
2024/01/05 08:05:29;;;;;;;;;;;;;;;;;;4972806;28;19942;-45
2024/01/05 08:07:55;;;;;;;;;;;;;;;;;;4972905;28;20317;-43
2024/01/05 08:10:20;;;;;;;;;;;;;;;;;;4972512;28;19996;-46
2024/01/05 08:12:46;;;;;;;;;;;;;;;;;;4983288;28;19933;-45
2024/01/05 08:15:12;;;;;;;;;;;;;;;;;;4991825;28;19910;-44
2024/01/05 08:17:38;;;;;;;;;;;;;;;;;;4992269;28;20304;-42
2024/01/05 08:20:05;;;;;;;;;;;;;;;;;;4992020;28;19924;-44
2024/01/05 08:22:31;;;;;;;;;;;;;;;;;;4989913;28;19910;-45
2024/01/05 08:24:57;;;;;;;;;;;;;;;;;;4972031;28;20384;-45
2024/01/05 08:27:23;;;;;;;;;;;;;;;;;;4971096;28;19918;-44
2024/01/05 08:29:49;;;;;;;;;;;;;;;;;;4972642;28;19989;-44
2024/01/05 08:32:15;;;;;;;;;;;;;;;;;;4971499;28;19917;-44
2024/01/05 08:34:41;;;;;;;;;;;;;;;;;;4972747;28;20013;-45
2024/01/05 08:37:07;;;;;;;;;;;;;;;;;;4972868;28;19910;-45
2024/01/05 08:39:33;;;;;;;;;;;;;;;;;;4971577;28;20396;-45
2024/01/05 08:41:59;;;;;;;;;;;;;;;;;;4971239;28;19921;-45
2024/01/05 08:44:24;;;;;;;;;;;;;;;;;;4953272;28;19914;-45
2024/01/05 08:46:50;;;;;;;;;;;;;;;;;;4952985;28;20493;-43
2024/01/05 08:49:16;;;;;;;;;;;;;;;;;;4965769;28;20009;-43
2024/01/05 08:51:42;;;;;;;;;;;;;;;;;;4972147;28;19954;-44
2024/01/05 08:54:09;;;;;;;;;;;;;;;;;;4956265;28;19914;-44
2024/01/05 08:56:35;;;;;;;;;;;;;;;;;;4952946;28;19911;-47
2024/01/05 08:59:01;;;;;;;;;;;;;;;;;;4970460;28;20328;-46
2024/01/05 09:01:28;;;;;;;;;;;;;;;;;;4971819;28;19924;-47
2024/01/05 09:03:54;;;;;;;;;;;;;;;;;;4971260;28;20001;-45
2024/01/05 09:06:20;;;;;;;;;;;;;;;;;;4972059;28;20596;-48
2024/01/05 09:08:46;;;;;;;;;;;;;;;;;;4963165;28;19919;-46
2024/01/05 09:11:12;;;;;;;;;;;;;;;;;;4965387;28;20298;-48
2024/01/05 09:13:38;;;;;;;;;;;;;;;;;;4972266;28;19972;-44
2024/01/05 09:16:04;;;;;;;;;;;;;;;;;;4971082;28;19910;-44
2024/01/05 09:18:33;;;;;;;;;;;;;;;;;;4964857;28;19919;-45
2024/01/05 09:20:59;;;;;;;;;;;;;;;;;;4960175;28;19937;-47
2024/01/05 09:23:26;;;;;;;;;;;;;;;;;;4967911;28;19961;-47
2024/01/05 09:25:52;;;;;;;;;;;;;;;;;;4972277;28;19911;-48
2024/01/05 09:28:18;;;;;;;;;;;;;;;;;;4970886;28;19914;-46
2024/01/05 09:30:43;;;;;;;;;;;;;;;;;;4971515;28;19961;-44
2024/01/05 09:33:09;;;;;;;;;;;;;;;;;;4972353;28;19921;-45
2024/01/05 09:35:35;;;;;;;;;;;;;;;;;;4971749;28;20456;-44
2024/01/05 09:38:01;;;;;;;;;;;;;;;;;;4976180;28;19914;-46
2024/01/05 09:40:27;;;;;;;;;;;;;;;;;;4972837;28;19972;-45
2024/01/05 09:42:54;;;;;;;;;;;;;;;;;;4981926;28;19914;-45
2024/01/05 09:45:21;;;;;;;;;;;;;;;;;;4971887;28;19915;-47
2024/01/05 09:47:47;;;;;;;;;;;;;;;;;;4972603;28;20408;-46
2024/01/05 09:50:15;;;;;;;;;;;;;;;;;;4971452;28;19949;-44
2024/01/05 09:52:41;;;;;;;;;;;;;;;;;;4971947;28;20431;-48
2024/01/05 09:55:07;;;;;;;;;;;;;;;;;;4983521;28;19910;-47
2024/01/05 09:57:33;;;;;;;;;;;;;;;;;;4991802;28;19976;-45
2024/01/05 10:00:00;;;;;;;;;;;;;;;;;;4991611;28;19920;-45
2024/01/05 10:02:26;;;;;;;;;;;;;;;;;;4991699;28;19921;-45
2024/01/05 10:04:52;;;;;;;;;;;;;;;;;;4991762;28;19909;-49
2024/01/05 10:07:18;;;;;;;;;;;;;;;;;;4986243;28;19921;-48
2024/01/05 10:09:44;;;;;;;;;;;;;;;;;;4977740;28;19968;-47
2024/01/05 10:12:10;;;;;;;;;;;;;;;;;;4978509;28;20422;-48
2024/01/05 10:14:36;;;;;;;;;;;;;;;;;;4978272;28;19915;-45
2024/01/05 10:17:02;;;;;;;;;;;;;;;;;;4972753;28;19914;-46
2024/01/05 10:19:28;;;;;;;;;;;;;;;;;;4962820;28;19961;-45
2024/01/05 10:21:54;;;;;;;;;;;;;;;;;;4975141;28;19913;-46
2024/01/05 10:24:21;;;;;;;;;;;;;;;;;;4991245;28;19910;-48
2024/01/05 10:26:47;;;;;;;;;;;;;;;;;;4982536;28;19921;-47
2024/01/05 10:29:13;;;;;;;;;;;;;;;;;;4976055;28;20281;-48
2024/01/05 10:31:39;;;;;;;;;;;;;;;;;;4979324;28;20385;-47
2024/01/05 10:34:05;;;;;;;;;;;;;;;;;;4982952;28;20416;-47
2024/01/05 10:36:31;;;;;;;;;;;;;;;;;;4975480;28;19953;-47
2024/01/05 10:38:57;;;;;;;;;;;;;;;;;;4979503;28;19914;-48
2024/01/05 10:41:23;;;;;;;;;;;;;;;;;;4975720;28;19911;-50
2024/01/05 10:43:49;;;;;;;;;;;;;;;;;;4974934;28;19906;-47
2024/01/05 10:46:17;;;;;;;;;;;;;;;;;;4975499;28;19960;-49
2024/01/05 10:48:43;;;;;;;;;;;;;;;;;;4975544;28;19941;-49
2024/01/05 10:51:09;;;;;;;;;;;;;;;;;;4993536;28;20004;-46
2024/01/05 10:53:34;;;;;;;;;;;;;;;;;;4988490;28;20308;-46
2024/01/05 10:56:00;;;;;;;;;;;;;;;;;;4979040;28;19914;-47
2024/01/05 10:58:26;;;;;;;;;;;;;;;;;;4988356;28;19964;-46
2024/01/05 11:00:52;;;;;;;;;;;;;;;;;;4994480;28;19917;-47
2024/01/05 11:03:18;;;;;;;;;;;;;;;;;;4981303;28;19911;-48
2024/01/05 11:05:44;;;;;;;;;;;;;;;;;;4975089;28;20005;-48
2024/01/05 11:08:10;;;;;;;;;;;;;;;;;;4973860;28;19910;-45
2024/01/05 11:10:36;;;;;;;;;;;;;;;;;;4972653;28;19922;-45
2024/01/05 11:13:02;;;;;;;;;;;;;;;;;;4974696;28;19914;-45
2024/01/05 11:15:28;;;;;;;;;;;;;;;;;;4974992;28;19961;-49
2024/01/05 11:17:54;;;;;;;;;;;;;;;;;;4967431;28;19945;-47
2024/01/05 11:20:20;;;;;;;;;;;;;;;;;;4972480;28;19910;-45
2024/01/05 11:22:46;;;;;;;;;;;;;;;;;;4957975;28;20305;-47
2024/01/05 11:25:12;;;;;;;;;;;;;;;;;;4953487;29;19911;-45
2024/01/05 11:27:38;;;;;;;;;;;;;;;;;;4954567;28;20022;-47
2024/01/05 11:30:04;;;;;;;;;;;;;;;;;;4971656;28;19918;-49
2024/01/05 11:32:30;;;;;;;;;;;;;;;;;;4972571;28;19977;-48
2024/01/05 11:34:56;;;;;;;;;;;;;;;;;;4971980;28;20500;-49
2024/01/05 11:37:22;;;;;;;;;;;;;;;;;;4969684;28;19914;-45
2024/01/05 11:39:48;;;;;;;;;;;;;;;;;;4970715;28;19914;-48
2024/01/05 11:42:14;;;;;;;;;;;;;;;;;;4972180;28;19945;-50
2024/01/05 11:44:41;;;;;;;;;;;;;;;;;;4968947;28;20672;-46
2024/01/05 11:47:08;;;;;;;;;;;;;;;;;;4966384;28;20377;-48
2024/01/05 11:49:33;;;;;;;;;;;;;;;;;;4970338;28;19922;-48
2024/01/05 11:51:59;;;;;;;;;;;;;;;;;;4968931;28;19918;-51
2024/01/05 11:54:25;;;;;;;;;;;;;;;;;;4965587;28;19989;-49
2024/01/05 11:56:51;;;;;;;;;;;;;;;;;;4968216;28;20298;-50
2024/01/05 11:59:17;;;;;;;;;;;;;;;;;;4966238;28;19918;-50
2024/01/05 12:01:43;;;;;;;;;;;;;;;;;;4970866;28;20005;-49
2024/01/05 12:04:09;;;;;;;;;;;;;;;;;;4970272;28;19914;-46
2024/01/05 12:06:34;;;;;;;;;;;;;;;;;;4965114;28;19915;-50
2024/01/05 12:09:00;;;;;;;;;;;;;;;;;;4967883;28;19933;-48
2024/01/05 12:11:27;;;;;;;;;;;;;;;;;;4971546;28;19914;-45
2024/01/05 12:13:53;;;;;;;;;;;;;;;;;;4976019;28;19914;-44
2024/01/05 12:16:19;;;;;;;;;;;;;;;;;;4974772;28;19914;-48
2024/01/05 12:18:46;;;;;;;;;;;;;;;;;;4965787;28;19924;-48
2024/01/05 12:21:12;;;;;;;;;;;;;;;;;;4968913;28;19918;-46
2024/01/05 12:23:38;;;;;;;;;;;;;;;;;;4973641;28;19914;-48
2024/01/05 12:26:04;;;;;;;;;;;;;;;;;;4972159;28;19914;-45
2024/01/05 12:28:30;;;;;;;;;;;;;;;;;;4964979;28;20275;-46
2024/01/05 12:30:56;;;;;;;;;;;;;;;;;;4965230;28;19918;-45
2024/01/05 12:33:23;;;;;;;;;;;;;;;;;;4987467;28;20008;-44
2024/01/05 12:35:49;;;;;;;;;;;;;;;;;;4982644;28;20289;-45
2024/01/05 12:38:15;;;;;;;;;;;;;;;;;;4959730;28;19926;-47
2024/01/05 12:40:41;;;;;;;;;;;;;;;;;;4971499;28;19964;-47
2024/01/05 12:43:07;;;;;;;;;;;;;;;;;;4971899;28;19910;-45
2024/01/05 12:45:34;;;;;;;;;;;;;;;;;;4969372;28;20456;-47
2024/01/05 12:47:59;;;;;;;;;;;;;;;;;;4951719;28;20132;-44
2024/01/05 12:50:25;;;;;;;;;;;;;;;;;;4951567;28;19914;-43
2024/01/05 12:52:51;;;;;;;;;;;;;;;;;;4966117;28;20017;-44
2024/01/05 12:55:17;;;;;;;;;;;;;;;;;;4971018;28;19957;-43
2024/01/05 12:57:43;;;;;;;;;;;;;;;;;;4951707;28;19914;-45
2024/01/05 13:00:10;;;;;;;;;;;;;;;;;;4952015;28;19915;-46
2024/01/05 13:02:36;;;;;;;;;;;;;;;;;;4951026;28;19973;-44
2024/01/05 13:05:02;;;;;;;;;;;;;;;;;;4952587;28;19914;-45
2024/01/05 13:07:27;;;;;;;;;;;;;;;;;;4970808;28;20332;-44
2024/01/05 13:09:54;;;;;;;;;;;;;;;;;;4970878;28;19910;-44
2024/01/05 13:12:20;;;;;;;;;;;;;;;;;;4970622;28;19917;-45
2024/01/05 13:14:46;;;;;;;;;;;;;;;;;;4968920;28;19922;-45
2024/01/05 13:17:12;;;;;;;;;;;;;;;;;;4953219;28;19914;-47
2024/01/05 13:19:39;;;;;;;;;;;;;;;;;;4961495;28;19918;-45
2024/01/05 13:22:09;;;;;;;;;;;;;;;;;;4969398;28;19961;-44
2024/01/05 13:24:35;;;;;;;;;;;;;;;;;;4968306;28;19947;-45
2024/01/05 13:27:01;;;;;;;;;;;;;;;;;;4970245;28;19949;-44
2024/01/05 13:29:26;;;;;;;;;;;;;;;;;;4969814;28;20364;-46
2024/01/05 13:31:52;;;;;;;;;;;;;;;;;;4969197;28;19914;-42
2024/01/05 13:34:20;;;;;;;;;;;;;;;;;;4970375;28;19914;-44
2024/01/05 13:36:46;;;;;;;;;;;;;;;;;;4969374;28;19917;-45
2024/01/05 13:39:12;;;;;;;;;;;;;;;;;;4969330;28;19914;-44
2024/01/05 13:41:37;;;;;;;;;;;;;;;;;;4968810;28;19914;-43
2024/01/05 13:44:03;;;;;;;;;;;;;;;;;;4968776;28;20001;-43
2024/01/05 13:46:29;;;;;;;;;;;;;;;;;;4968587;28;19914;-45
2024/01/05 13:48:55;;;;;;;;;;;;;;;;;;4968607;28;20392;-45
2024/01/05 13:51:21;;;;;;;;;;;;;;;;;;4964217;28;19950;-43
2024/01/05 13:53:48;;;;;;;;;;;;;;;;;;4969453;28;19910;-43
2024/01/05 13:56:14;;;;;;;;;;;;;;;;;;4969357;28;20013;-43
2024/01/05 13:58:40;;;;;;;;;;;;;;;;;;4967305;28;20388;-45
2024/01/05 14:01:09;;;;;;;;;;;;;;;;;;4957830;28;19922;-43
2024/01/05 14:03:36;;;;;;;;;;;;;;;;;;4972049;28;19918;-46
2024/01/05 14:06:04;;;;;;;;;;;;;;;;;;4971169;28;19964;-45
2024/01/05 14:08:31;;;;;;;;;;;;;;;;;;4971190;28;19968;-44
2024/01/05 14:10:57;;;;;;;;;;;;;;;;;;4990556;28;20392;-44
2024/01/05 14:13:23;;;;;;;;;;;;;;;;;;4988405;28;20009;-43
2024/01/05 14:15:49;;;;;;;;;;;;;;;;;;4973200;28;19957;-44
2024/01/05 14:18:15;;;;;;;;;;;;;;;;;;4972930;28;20288;-43
2024/01/05 14:20:40;;;;;;;;;;;;;;;;;;4972906;28;19965;-44
2024/01/05 14:23:08;;;;;;;;;;;;;;;;;;4972004;28;20380;-44
2024/01/05 14:25:34;;;;;;;;;;;;;;;;;;4969137;28;19915;-44
2024/01/05 14:28:00;;;;;;;;;;;;;;;;;;4965595;28;20012;-43
2024/01/05 14:30:26;;;;;;;;;;;;;;;;;;4972661;28;20016;-44
2024/01/05 14:32:52;;;;;;;;;;;;;;;;;;4974996;28;20583;-42
2024/01/05 14:35:20;;;;;;;;;;;;;;;;;;4971542;28;19921;-44
2024/01/05 14:37:46;;;;;;;;;;;;;;;;;;4964168;28;19961;-42
2024/01/05 14:40:12;;;;;;;;;;;;;;;;;;4971102;28;19961;-42
2024/01/05 14:42:38;;;;;;;;;;;;;;;;;;4972214;28;19915;-41
2024/01/05 14:45:04;;;;;;;;;;;;;;;;;;4972408;28;19910;-41
2024/01/05 14:47:30;;;;;;;;;;;;;;;;;;4970545;28;19921;-43
2024/01/05 14:49:56;;;;;;;;;;;;;;;;;;4984044;28;20296;-41
2024/01/05 14:52:21;;;;;;;;;;;;;;;;;;4974580;28;19954;-41
2024/01/05 14:54:47;;;;;;;;;;;;;;;;;;4979884;28;20495;-43
2024/01/05 14:57:13;;;;;;;;;;;;;;;;;;4971546;28;19910;-41
2024/01/05 14:59:39;;;;;;;;;;;;;;;;;;4962576;28;19918;-41
2024/01/05 15:02:05;;;;;;;;;;;;;;;;;;4967098;28;20012;-41
2024/01/05 15:04:31;;;;;;;;;;;;;;;;;;4980168;28;19910;-41
2024/01/05 15:06:57;;;;;;;;;;;;;;;;;;4981296;28;19945;-41
2024/01/05 15:09:23;;;;;;;;;;;;;;;;;;4972746;28;19910;-48
2024/01/05 15:11:50;;;;;;;;;;;;;;;;;;4971602;28;20292;-49
2024/01/05 15:14:16;;;;;;;;;;;;;;;;;;4968638;28;19914;-48
2024/01/05 15:16:42;;;;;;;;;;;;;;;;;;4966458;28;19915;-50
2024/01/05 15:19:08;;;;;;;;;;;;;;;;;;4955629;28;19917;-46
2024/01/05 15:21:34;;;;;;;;;;;;;;;;;;4970751;28;19914;-46
2024/01/05 15:24:00;;;;;;;;;;;;;;;;;;4961555;28;20451;-47
2024/01/05 15:26:26;;;;;;;;;;;;;;;;;;4977533;28;19914;-47
2024/01/05 15:28:52;;;;;;;;;;;;;;;;;;4969739;28;19910;-49
2024/01/05 15:31:18;;;;;;;;;;;;;;;;;;4972672;28;19921;-46
2024/01/05 15:33:44;;;;;;;;;;;;;;;;;;4972055;28;19960;-47
2024/01/05 15:36:10;;;;;;;;;;;;;;;;;;4970575;28;20026;-46
2024/01/05 15:38:36;;;;;;;;;;;;;;;;;;4971429;28;19945;-41
2024/01/05 15:41:03;;;;;;;;;;;;;;;;;;4968517;28;19914;-42
2024/01/05 15:43:29;;;;;;;;;;;;;;;;;;4959736;28;20286;-42
2024/01/05 15:45:55;;;;;;;;;;;;;;;;;;4965754;28;19921;-41
2024/01/05 15:48:21;;;;;;;;;;;;;;;;;;4968484;28;19988;-42
2024/01/05 15:50:47;;;;;;;;;;;;;;;;;;4977843;28;19936;-42
2024/01/05 15:53:13;;;;;;;;;;;;;;;;;;4971549;28;19965;-42
2024/01/05 15:55:38;;;;;;;;;;;;;;;;;;4970631;28;20423;-42
2024/01/05 15:58:04;;;;;;;;;;;;;;;;;;4970687;28;20011;-43
2024/01/05 16:00:30;;;;;;;;;;;;;;;;;;4969683;28;20385;-42
2024/01/05 16:02:56;;;;;;;;;;;;;;;;;;4970932;28;20276;-42
2024/01/05 16:05:22;;;;;;;;;;;;;;;;;;4970772;28;19910;-42
2024/01/05 16:07:48;;;;;;;;;;;;;;;;;;4970767;28;19910;-48
2024/01/05 16:10:14;;;;;;;;;;;;;;;;;;4970692;28;19957;-47
2024/01/05 16:12:40;;;;;;;;;;;;;;;;;;4974135;28;20053;-49
2024/01/05 16:15:09;;;;;;;;;;;;;;;;;;4980154;28;19928;-48
2024/01/05 16:17:35;;;;;;;;;;;;;;;;;;4973449;28;20362;-46
2024/01/05 16:20:02;;;;;;;;;;;;;;;;;;4979872;28;20361;-50
2024/01/05 16:22:30;;;;;;;;;;;;;;;;;;4975053;28;19953;-47
2024/01/05 16:24:56;;;;;;;;;;;;;;;;;;4970320;28;19918;-50
2024/01/05 16:27:22;;;;;;;;;;;;;;;;;;4971961;28;20352;-43
2024/01/05 16:29:48;;;;;;;;;;;;;;;;;;4969528;28;20408;-44
2024/01/05 16:32:14;;;;;;;;;;;;;;;;;;4964431;28;19920;-42
2024/01/05 16:34:40;;;;;;;;;;;;;;;;;;4968418;28;19918;-43
2024/01/05 16:37:06;;;;;;;;;;;;;;;;;;4967755;28;20018;-52
2024/01/05 16:39:32;;;;;;;;;;;;;;;;;;4969879;28;19917;-48
2024/01/05 16:41:58;;;;;;;;;;;;;;;;;;4965400;28;19933;-49
2024/01/05 16:44:24;;;;;;;;;;;;;;;;;;4975120;28;20444;-51
2024/01/05 16:46:50;;;;;;;;;;;;;;;;;;4968717;28;19941;-49
2024/01/05 16:49:16;;;;;;;;;;;;;;;;;;4970383;28;20439;-51
2024/01/05 16:51:42;;;;;;;;;;;;;;;;;;4965229;28;19949;-48
2024/01/05 16:54:07;;;;;;;;;;;;;;;;;;4954570;28;20340;-48
2024/01/05 16:56:39;;;;;;;;;;;;;;;;;;4969416;28;20356;-48
2024/01/05 16:59:05;;;;;;;;;;;;;;;;;;4961972;28;20246;-47
2024/01/05 17:01:31;;;;;;;;;;;;;;;;;;4968849;28;19925;-49
2024/01/05 17:03:57;;;;;;;;;;;;;;;;;;4968467;28;19910;-46
2024/01/05 17:06:23;;;;;;;;;;;;;;;;;;4969315;28;19949;-51
2024/01/05 17:08:49;;;;;;;;;;;;;;;;;;4965097;28;19953;-48
2024/01/05 17:11:15;;;;;;;;;;;;;;;;;;4951565;28;20382;-46
2024/01/05 17:13:41;;;;;;;;;;;;;;;;;;4959675;28;19910;-49
2024/01/05 17:16:07;;;;;;;;;;;;;;;;;;4962730;28;19925;-48
2024/01/05 17:18:33;;;;;;;;;;;;;;;;;;4962487;28;20076;-52
2024/01/05 17:20:59;;;;;;;;;;;;;;;;;;4970612;28;20041;-48
2024/01/05 17:23:25;;;;;;;;;;;;;;;;;;4953402;28;19915;-49
2024/01/05 17:25:52;;;;;;;;;;;;;;;;;;4964996;28;19914;-49
2024/01/05 17:28:17;;;;;;;;;;;;;;;;;;4968714;28;19922;-49
2024/01/05 17:30:44;;;;;;;;;;;;;;;;;;4971130;28;20397;-48
2024/01/05 17:33:10;;;;;;;;;;;;;;;;;;4966363;28;19914;-48
2024/01/05 17:35:35;;;;;;;;;;;;;;;;;;4968287;28;19920;-50
2024/01/05 17:38:01;;;;;;;;;;;;;;;;;;4958974;28;19921;-43
2024/01/05 17:40:27;;;;;;;;;;;;;;;;;;4968514;28;19917;-42
2024/01/05 17:42:53;;;;;;;;;;;;;;;;;;4973857;28;19910;-42
2024/01/05 17:45:19;;;;;;;;;;;;;;;;;;4979325;28;19910;-42
2024/01/05 17:47:45;;;;;;;;;;;;;;;;;;4961019;28;19914;-43
2024/01/05 17:50:13;;;;;;;;;;;;;;;;;;4955985;28;20412;-43
2024/01/05 17:52:39;;;;;;;;;;;;;;;;;;4954208;28;19914;-42
2024/01/05 17:55:05;;;;;;;;;;;;;;;;;;4971981;28;20067;-41
2024/01/05 17:57:31;;;;;;;;;;;;;;;;;;4987574;28;19948;-41
2024/01/05 17:59:57;;;;;;;;;;;;;;;;;;4970362;28;19944;-42
2024/01/05 18:02:23;;;;;;;;;;;;;;;;;;4968537;28;19922;-41
2024/01/05 18:04:49;;;;;;;;;;;;;;;;;;4974841;28;19982;-41
2024/01/05 18:07:16;;;;;;;;;;;;;;;;;;4984962;28;20377;-42
2024/01/05 18:09:42;;;;;;;;;;;;;;;;;;4987279;28;19975;-41
2024/01/05 18:12:08;;;;;;;;;;;;;;;;;;4956654;28;19962;-42
2024/01/05 18:14:35;;;;;;;;;;;;;;;;;;4952222;28;19915;-41
2024/01/05 18:17:01;;;;;;;;;;;;;;;;;;4958124;28;19914;-41
2024/01/05 18:19:27;;;;;;;;;;;;;;;;;;4953448;28;19957;-41
2024/01/05 18:21:55;;;;;;;;;;;;;;;;;;4959108;28;19961;-42
2024/01/05 18:24:21;;;;;;;;;;;;;;;;;;4964116;28;19914;-42
2024/01/05 18:26:47;;;;;;;;;;;;;;;;;;4966998;28;19911;-42
2024/01/05 18:29:14;;;;;;;;;;;;;;;;;;4965335;28;20378;-42
2024/01/05 18:31:40;;;;;;;;;;;;;;;;;;4955239;28;19930;-41
2024/01/05 18:34:08;;;;;;;;;;;;;;;;;;4966076;28;19918;-42
2024/01/05 18:36:34;;;;;;;;;;;;;;;;;;4963329;28;19914;-42
2024/01/05 18:39:00;;;;;;;;;;;;;;;;;;4950030;28;20408;-42
2024/01/05 18:41:28;;;;;;;;;;;;;;;;;;4970418;28;19945;-42
2024/01/05 18:43:54;;;;;;;;;;;;;;;;;;4976574;28;19921;-42
2024/01/05 18:46:20;;;;;;;;;;;;;;;;;;4948992;28;19910;-42
2024/01/05 18:48:46;;;;;;;;;;;;;;;;;;4949798;28;20002;-42
2024/01/05 18:51:12;;;;;;;;;;;;;;;;;;4964619;28;19914;-42
2024/01/05 18:53:38;;;;;;;;;;;;;;;;;;4959536;28;19929;-42
2024/01/05 18:56:04;;;;;;;;;;;;;;;;;;4958547;28;19914;-42
2024/01/05 18:58:30;;;;;;;;;;;;;;;;;;4954538;28;20282;-42
2024/01/05 19:00:57;;;;;;;;;;;;;;;;;;4957816;28;19925;-41
2024/01/05 19:03:23;;;;;;;;;;;;;;;;;;4954121;28;19978;-41
2024/01/05 19:05:51;;;;;;;;;;;;;;;;;;4962858;28;20206;-41
2024/01/05 19:08:17;;;;;;;;;;;;;;;;;;4966163;28;20009;-41
2024/01/05 19:10:43;;;;;;;;;;;;;;;;;;4967091;28;20010;-41
2024/01/05 19:13:09;;;;;;;;;;;;;;;;;;4953739;28;19926;-41
2024/01/05 19:15:35;;;;;;;;;;;;;;;;;;4957041;28;19925;-41
2024/01/05 19:18:01;;;;;;;;;;;;;;;;;;4961149;28;19918;-41
2024/01/05 19:20:27;;;;;;;;;;;;;;;;;;4963645;28;19918;-41
2024/01/05 19:22:53;;;;;;;;;;;;;;;;;;4965570;28;19972;-41
2024/01/05 19:25:19;;;;;;;;;;;;;;;;;;4966159;28;19914;-42
2024/01/05 19:27:45;;;;;;;;;;;;;;;;;;4957924;28;19957;-41
2024/01/05 19:30:11;;;;;;;;;;;;;;;;;;4973700;28;19917;-42
2024/01/05 19:32:39;;;;;;;;;;;;;;;;;;4951090;28;20478;-41
2024/01/05 19:35:07;;;;;;;;;;;;;;;;;;4957713;28;19942;-41
2024/01/05 19:37:33;;;;;;;;;;;;;;;;;;4958459;28;20274;-41
2024/01/05 19:39:59;;;;;;;;;;;;;;;;;;4950623;28;19969;-42
2024/01/05 19:42:27;;;;;;;;;;;;;;;;;;4961035;28;19914;-41
2024/01/05 19:44:53;;;;;;;;;;;;;;;;;;4963318;28;19965;-41
2024/01/05 19:47:19;;;;;;;;;;;;;;;;;;4955406;28;19914;-41
2024/01/05 19:49:45;;;;;;;;;;;;;;;;;;4950690;28;19917;-42
2024/01/05 19:52:11;;;;;;;;;;;;;;;;;;4961625;28;19914;-42
2024/01/05 19:54:37;;;;;;;;;;;;;;;;;;4954685;28;19918;-42
2024/01/05 19:57:04;;;;;;;;;;;;;;;;;;4961451;28;19928;-42
2024/01/05 19:59:30;;;;;;;;;;;;;;;;;;4957994;28;19922;-41
2024/01/05 20:01:56;;;;;;;;;;;;;;;;;;4968058;28;19926;-41
2024/01/05 20:04:22;;;;;;;;;;;;;;;;;;4955276;28;20407;-41
2024/01/05 20:06:48;;;;;;;;;;;;;;;;;;4969174;28;19914;-42
2024/01/05 20:09:14;;;;;;;;;;;;;;;;;;4967462;28;19910;-42
2024/01/05 20:11:39;;;;;;;;;;;;;;;;;;4960651;28;20436;-42
2024/01/05 20:14:05;;;;;;;;;;;;;;;;;;4969187;28;19914;-41
2024/01/05 20:16:31;;;;;;;;;;;;;;;;;;4968097;28;19914;-42
2024/01/05 20:19:01;;;;;;;;;;;;;;;;;;4961680;28;19985;-42
2024/01/05 20:21:26;;;;;;;;;;;;;;;;;;4970649;28;19921;-42
2024/01/05 20:23:52;;;;;;;;;;;;;;;;;;4968485;28;19914;-42
2024/01/05 20:26:18;;;;;;;;;;;;;;;;;;4966239;28;20387;-41
2024/01/05 20:28:44;;;;;;;;;;;;;;;;;;4953508;28;20264;-42
2024/01/05 20:31:10;;;;;;;;;;;;;;;;;;4968211;28;20381;-42
2024/01/05 20:33:36;;;;;;;;;;;;;;;;;;4964896;28;19975;-41
2024/01/05 20:36:02;;;;;;;;;;;;;;;;;;4959908;28;19953;-41
2024/01/05 20:38:30;;;;;;;;;;;;;;;;;;4966868;28;19910;-42
2024/01/05 20:40:55;;;;;;;;;;;;;;;;;;4968096;28;19926;-42
2024/01/05 20:43:22;;;;;;;;;;;;;;;;;;4966007;28;19914;-42
2024/01/05 20:45:48;;;;;;;;;;;;;;;;;;4957826;28;19965;-41
2024/01/05 20:48:14;;;;;;;;;;;;;;;;;;4961430;28;19953;-42
2024/01/05 20:50:40;;;;;;;;;;;;;;;;;;4968070;28;20073;-42
2024/01/05 20:53:06;;;;;;;;;;;;;;;;;;4961943;28;20013;-42
2024/01/05 20:55:32;;;;;;;;;;;;;;;;;;4967428;28;19914;-42
2024/01/05 20:57:58;;;;;;;;;;;;;;;;;;4953077;28;20005;-42
2024/01/05 21:00:24;;;;;;;;;;;;;;;;;;4963853;28;19922;-42
2024/01/05 21:02:49;;;;;;;;;;;;;;;;;;4969617;28;20065;-42
2024/01/05 21:05:15;;;;;;;;;;;;;;;;;;4965626;28;19948;-41
2024/01/05 21:07:41;;;;;;;;;;;;;;;;;;4967262;28;19914;-42
2024/01/05 21:10:07;;;;;;;;;;;;;;;;;;4964849;28;19918;-42
2024/01/05 21:12:34;;;;;;;;;;;;;;;;;;4965762;28;20382;-42
2024/01/05 21:15:00;;;;;;;;;;;;;;;;;;4968051;28;20282;-41
2024/01/05 21:17:26;;;;;;;;;;;;;;;;;;4959107;28;19922;-41
2024/01/05 21:19:52;;;;;;;;;;;;;;;;;;4949194;28;20271;-42
2024/01/05 21:22:18;;;;;;;;;;;;;;;;;;4963322;28;19915;-42
2024/01/05 21:24:45;;;;;;;;;;;;;;;;;;4948494;29;19910;-42
2024/01/05 21:27:11;;;;;;;;;;;;;;;;;;4948790;28;20002;-42
2024/01/05 21:29:37;;;;;;;;;;;;;;;;;;4956065;28;19996;-41
2024/01/05 21:32:04;;;;;;;;;;;;;;;;;;4964924;28;19918;-42
2024/01/05 21:34:30;;;;;;;;;;;;;;;;;;4966921;28;19914;-41
2024/01/05 21:36:58;;;;;;;;;;;;;;;;;;4967870;28;19918;-41
2024/01/05 21:39:24;;;;;;;;;;;;;;;;;;4966059;28;19937;-41
2024/01/05 21:41:50;;;;;;;;;;;;;;;;;;4967049;28;19914;-41
2024/01/05 21:44:16;;;;;;;;;;;;;;;;;;4968183;28;20296;-41
2024/01/05 21:46:42;;;;;;;;;;;;;;;;;;4958401;28;20048;-41
2024/01/05 21:49:08;;;;;;;;;;;;;;;;;;4960653;28;20107;-43
2024/01/05 21:51:34;;;;;;;;;;;;;;;;;;4966828;28;19914;-43
2024/01/05 21:54:00;;;;;;;;;;;;;;;;;;4966391;28;19914;-42
2024/01/05 21:56:26;;;;;;;;;;;;;;;;;;4966556;28;20300;-42
2024/01/05 21:58:52;;;;;;;;;;;;;;;;;;4956820;28;19921;-42
2024/01/05 22:01:18;;;;;;;;;;;;;;;;;;4952684;28;19924;-42
2024/01/05 22:03:44;;;;;;;;;;;;;;;;;;4955034;28;20302;-42
2024/01/05 22:06:10;;;;;;;;;;;;;;;;;;4959575;28;19962;-42
2024/01/05 22:08:36;;;;;;;;;;;;;;;;;;4950696;28;19918;-42
2024/01/05 22:11:03;;;;;;;;;;;;;;;;;;4965220;28;19918;-42
2024/01/05 22:13:29;;;;;;;;;;;;;;;;;;4964617;28;19918;-42
2024/01/05 22:15:56;;;;;;;;;;;;;;;;;;4964489;28;19914;-42
2024/01/05 22:18:22;;;;;;;;;;;;;;;;;;4962927;28;19942;-43
2024/01/05 22:20:48;;;;;;;;;;;;;;;;;;4965277;28;19918;-42
2024/01/05 22:23:14;;;;;;;;;;;;;;;;;;4961611;28;20417;-42
2024/01/05 22:25:40;;;;;;;;;;;;;;;;;;4957675;28;19969;-42
2024/01/05 22:28:06;;;;;;;;;;;;;;;;;;4958651;28;19922;-42
2024/01/05 22:30:32;;;;;;;;;;;;;;;;;;4954064;28;19962;-42
2024/01/05 22:32:57;;;;;;;;;;;;;;;;;;4967759;28;20004;-42
2024/01/05 22:35:23;;;;;;;;;;;;;;;;;;4968889;28;19918;-42
2024/01/05 22:37:49;;;;;;;;;;;;;;;;;;4958694;28;19915;-41